createdAt,value
2023-04-23T00:01:48.090Z,15.05
2023-04-23T00:04:16.476Z,10.77
2023-04-23T00:06:43.384Z,21.90
2023-04-23T00:09:11.858Z,14.82
2023-04-23T00:11:39.105Z,12.60
2023-04-23T00:14:05.783Z,15.65
2023-04-23T00:16:32.624Z,17.85
2023-04-23T00:18:59.179Z,14.68
2023-04-23T00:21:25.660Z,18.20
2023-04-23T00:23:52.109Z,15.45
2023-04-23T00:26:18.647Z,10.77
2023-04-23T00:28:45.223Z,13.35
2023-04-23T00:31:12.006Z,12.60
2023-04-23T00:33:38.872Z,13.80
2023-04-23T00:36:06.953Z,17.08
2023-04-23T00:38:33.402Z,22.75
2023-04-23T00:40:59.898Z,16.05
2023-04-23T00:43:26.407Z,17.15
2023-04-23T00:45:52.957Z,14.02
2023-04-23T00:48:19.490Z,14.68
2023-04-23T00:50:46.685Z,12.32
2023-04-23T00:53:13.235Z,18.20
2023-04-23T00:55:40.761Z,17.80
2023-04-23T00:58:07.481Z,21.73
2023-04-23T01:00:41.862Z,15.23
2023-04-23T01:03:08.688Z,18.52
2023-04-23T01:09:18.340Z,14.23
2023-04-23T01:11:44.837Z,12.73
2023-04-23T01:14:12.050Z,13.55
2023-04-23T01:16:42.437Z,15.07
2023-04-23T01:19:12.410Z,16.42
2023-04-23T01:21:42.593Z,12.60
2023-04-23T01:24:10.165Z,12.90
2023-04-23T01:26:36.695Z,14.25
2023-04-23T01:29:03.560Z,14.00
2023-04-23T01:31:30.918Z,19.27
2023-04-23T01:33:58.900Z,20.33
2023-04-23T01:36:25.553Z,12.45
2023-04-23T01:38:52.380Z,18.98
2023-04-23T01:41:20.165Z,22.10
2023-04-23T01:43:46.711Z,19.25
2023-04-23T01:46:13.365Z,14.70
2023-04-23T01:48:39.931Z,17.88
2023-04-23T01:51:06.615Z,17.65
2023-04-23T01:53:33.089Z,19.20
2023-04-23T01:56:01.341Z,15.63
2023-04-23T01:58:27.856Z,17.02
2023-04-23T02:00:54.418Z,18.45
2023-04-23T02:03:21.102Z,12.63
2023-04-23T02:05:48.149Z,13.88
2023-04-23T02:08:14.737Z,19.88
2023-04-23T02:10:41.215Z,16.17
2023-04-23T02:13:07.652Z,12.38
2023-04-23T02:15:34.594Z,19.20
2023-04-23T02:18:01.200Z,17.88
2023-04-23T02:20:27.877Z,19.60
2023-04-23T02:22:54.469Z,13.40
2023-04-23T02:25:21.944Z,20.17
2023-04-23T02:27:49.094Z,15.13
2023-04-23T02:30:15.932Z,17.30
2023-04-23T02:32:43.132Z,19.73
2023-04-23T02:35:10.533Z,17.48
2023-04-23T02:37:37.556Z,16.35
2023-04-23T02:40:08.106Z,17.77
2023-04-23T02:42:34.637Z,15.77
2023-04-23T02:45:01.622Z,19.98
2023-04-23T02:47:28.166Z,18.70
2023-04-23T02:49:54.687Z,18.75
2023-04-23T02:52:21.428Z,13.95
2023-04-23T02:54:48.305Z,18.95
2023-04-23T02:57:16.383Z,15.23
2023-04-23T02:59:43.345Z,15.55
2023-04-23T03:02:10.039Z,18.45
2023-04-23T03:04:36.671Z,16.92
2023-04-23T03:07:03.226Z,15.43
2023-04-23T03:09:29.656Z,20.48
2023-04-23T03:11:57.612Z,17.27
2023-04-23T03:14:24.091Z,16.80
2023-04-23T03:16:50.739Z,14.50
2023-04-23T03:19:17.271Z,19.60
2023-04-23T03:21:43.746Z,14.35
2023-04-23T03:24:13.335Z,14.77
2023-04-23T03:26:39.736Z,15.93
2023-04-23T03:29:06.815Z,13.77
2023-04-23T03:31:33.508Z,13.63
2023-04-23T03:34:00.071Z,16.27
2023-04-23T03:36:26.610Z,18.73
2023-04-23T03:38:53.080Z,16.08
2023-04-23T03:41:19.554Z,13.43
2023-04-23T03:43:46.334Z,13.65
2023-04-23T03:46:12.761Z,17.08
2023-04-23T03:48:39.601Z,18.63
2023-04-23T03:51:06.101Z,15.82
2023-04-23T03:53:32.539Z,19.77
2023-04-23T03:56:01.506Z,17.35
2023-04-23T03:58:27.984Z,13.13
2023-04-23T04:00:54.609Z,11.18
2023-04-23T04:03:21.756Z,15.48
2023-04-23T04:05:48.372Z,19.60
2023-04-23T04:08:15.419Z,16.05
2023-04-23T04:10:41.952Z,15.48
2023-04-23T04:13:08.433Z,17.25
2023-04-23T04:15:34.990Z,14.23
2023-04-23T04:18:01.552Z,15.88
2023-04-23T04:20:30.763Z,14.00
2023-04-23T04:22:57.319Z,14.52
2023-04-23T04:25:24.158Z,13.05
2023-04-23T04:27:50.803Z,12.07
2023-04-23T04:30:17.417Z,15.45
2023-04-23T04:32:45.559Z,12.80
2023-04-23T04:35:15.496Z,16.38
2023-04-23T04:37:43.802Z,12.98
2023-04-23T04:40:11.702Z,16.80
2023-04-23T04:42:39.127Z,14.20
2023-04-23T04:45:06.232Z,16.10
2023-04-23T04:47:32.773Z,13.57
2023-04-23T04:50:00.489Z,14.18
2023-04-23T04:52:27.589Z,15.50
2023-04-23T04:54:54.049Z,10.05
2023-04-23T04:57:22.835Z,17.95
2023-04-23T04:59:50.362Z,13.73
2023-04-23T05:02:17.065Z,12.40
2023-04-23T05:04:43.762Z,10.65
2023-04-23T05:07:11.092Z,14.68
2023-04-23T05:09:37.561Z,12.88
2023-04-23T05:12:07.327Z,12.15
2023-04-23T05:14:33.905Z,21.15
2023-04-23T05:17:00.687Z,17.88
2023-04-23T05:19:27.496Z,15.48
2023-04-23T05:21:54.058Z,19.52
2023-04-23T05:24:20.697Z,11.13
2023-04-23T05:26:47.197Z,12.20
2023-04-23T05:29:17.876Z,14.45
2023-04-23T05:31:44.424Z,16.20
2023-04-23T05:34:11.003Z,15.10
2023-04-23T05:36:37.533Z,15.18
2023-04-23T05:39:04.016Z,12.77
2023-04-23T05:41:30.492Z,16.33
2023-04-23T05:43:56.904Z,13.30
2023-04-23T05:46:23.461Z,18.35
2023-04-23T05:48:49.977Z,15.07
2023-04-23T05:51:17.384Z,18.83
2023-04-23T05:53:44.222Z,14.45
2023-04-23T05:56:10.847Z,14.85
2023-04-23T05:58:38.935Z,14.07
2023-04-23T06:01:05.592Z,13.38
2023-04-23T06:03:32.295Z,13.15
2023-04-23T06:05:59.441Z,35.92
2023-04-23T06:08:25.963Z,12.43
2023-04-23T06:10:52.503Z,15.50
2023-04-23T06:13:18.974Z,14.48
2023-04-23T06:15:45.554Z,14.73
2023-04-23T06:18:12.290Z,15.77
2023-04-23T06:20:39.064Z,11.35
2023-04-23T06:23:06.529Z,14.75
2023-04-23T06:25:33.001Z,11.75
2023-04-23T06:27:59.538Z,13.18
2023-04-23T06:30:26.063Z,12.90
2023-04-23T06:32:52.559Z,12.30
2023-04-23T06:35:19.128Z,11.70
2023-04-23T06:37:45.688Z,12.90
2023-04-23T06:40:12.343Z,12.57
2023-04-23T06:42:39.202Z,16.13
2023-04-23T06:45:06.588Z,12.93
2023-04-23T06:47:33.460Z,12.95
2023-04-23T06:50:00.307Z,16.38
2023-04-23T06:52:27.230Z,11.50
2023-04-23T06:54:53.730Z,9.10
2023-04-23T06:57:20.365Z,12.18
2023-04-23T06:59:46.811Z,15.40
2023-04-23T07:02:13.290Z,10.05
2023-04-23T07:04:39.938Z,11.65
2023-04-23T07:07:06.616Z,12.60
2023-04-23T07:09:33.231Z,10.52
2023-04-23T07:11:59.685Z,14.95
2023-04-23T07:14:26.180Z,15.20
2023-04-23T07:16:52.743Z,10.75
2023-04-23T07:19:19.261Z,16.33
2023-04-23T07:21:45.798Z,12.88
2023-04-23T07:24:12.237Z,10.90
2023-04-23T07:26:38.911Z,10.43
2023-04-23T07:29:07.769Z,12.02
2023-04-23T07:31:34.300Z,14.85
2023-04-23T07:34:01.290Z,11.23
2023-04-23T07:36:28.017Z,11.65
2023-04-23T07:38:54.755Z,14.32
2023-04-23T07:41:21.344Z,11.80
2023-04-23T07:43:47.829Z,13.13
2023-04-23T07:46:14.959Z,15.10
2023-04-23T07:48:41.698Z,14.95
2023-04-23T07:51:08.993Z,16.73
2023-04-23T07:53:35.651Z,14.77
2023-04-23T07:56:02.428Z,14.05
2023-04-23T07:58:28.901Z,17.30
2023-04-23T08:00:55.577Z,14.55
2023-04-23T08:03:22.403Z,16.67
2023-04-23T08:05:49.330Z,16.65
2023-04-23T08:08:15.790Z,14.90
2023-04-23T08:10:42.426Z,13.43
2023-04-23T08:13:08.993Z,13.95
2023-04-23T08:15:35.484Z,16.52
2023-04-23T08:18:04.079Z,14.02
2023-04-23T08:20:32.128Z,17.10
2023-04-23T08:22:58.684Z,15.60
2023-04-23T08:25:25.502Z,15.88
2023-04-23T08:27:52.450Z,13.27
2023-04-23T08:30:18.972Z,11.57
2023-04-23T08:32:49.662Z,12.82
2023-04-23T08:35:16.224Z,17.53
2023-04-23T08:37:42.685Z,15.07
2023-04-23T08:40:09.545Z,11.02
2023-04-23T08:42:38.573Z,14.23
2023-04-23T08:45:05.686Z,13.02
2023-04-23T08:47:32.657Z,13.18
2023-04-23T08:49:59.787Z,20.42
2023-04-23T08:52:29.371Z,10.82
2023-04-23T08:55:01.349Z,16.60
2023-04-23T08:57:27.947Z,13.93
2023-04-23T08:59:55.422Z,15.70
2023-04-23T09:02:23.212Z,11.25
2023-04-23T09:04:51.801Z,11.27
2023-04-23T09:07:19.155Z,14.27
2023-04-23T09:09:45.655Z,13.55
2023-04-23T09:12:12.112Z,18.60
2023-04-23T09:14:38.574Z,15.63
2023-04-23T09:17:05.227Z,12.52
2023-04-23T09:19:32.431Z,10.90
2023-04-23T09:22:01.119Z,12.50
2023-04-23T09:24:28.121Z,10.07
2023-04-23T09:26:54.963Z,9.07
2023-04-23T09:29:23.601Z,11.10
2023-04-23T09:31:52.246Z,9.80
2023-04-23T09:34:19.761Z,7.60
2023-04-23T09:36:50.358Z,6.05
2023-04-23T09:39:19.532Z,6.18
2023-04-23T09:41:46.548Z,6.82
2023-04-23T09:44:18.003Z,7.85
2023-04-23T09:46:45.021Z,6.32
2023-04-23T09:49:12.791Z,6.03
2023-04-23T09:51:40.886Z,10.20
2023-04-23T09:54:24.293Z,7.85
2023-04-23T09:56:53.680Z,8.55
2023-04-23T09:59:32.004Z,15.85
2023-04-23T10:02:08.077Z,6.25
2023-04-23T10:04:35.013Z,8.57
2023-04-23T10:07:17.961Z,8.55
2023-04-23T10:09:47.197Z,8.98
2023-04-23T10:14:45.931Z,7.72
2023-04-23T10:17:12.829Z,7.07
2023-04-23T10:19:43.424Z,6.55
2023-04-23T10:22:19.583Z,6.97
2023-04-23T10:24:51.465Z,11.23
2023-04-23T10:29:49.716Z,12.90
2023-04-23T10:32:17.844Z,13.45
2023-04-23T10:34:45.514Z,11.05
2023-04-23T10:37:13.050Z,12.65
2023-04-23T10:39:43.827Z,13.75
2023-04-23T10:42:13.451Z,13.77
2023-04-23T10:47:14.587Z,17.70
2023-04-23T10:49:41.708Z,17.63
2023-04-23T10:52:20.096Z,14.80
2023-04-23T10:54:56.470Z,14.38
2023-04-23T10:57:23.080Z,12.65
2023-04-23T10:59:57.092Z,17.50
2023-04-23T11:02:24.882Z,18.65
2023-04-23T11:04:58.867Z,16.05
2023-04-23T11:07:35.475Z,14.55
2023-04-23T11:10:15.064Z,17.83
2023-04-23T11:12:41.752Z,12.85
2023-04-23T11:15:13.891Z,12.63
2023-04-23T11:17:49.245Z,14.93
2023-04-23T11:20:20.295Z,19.67
2023-04-23T11:22:47.738Z,13.52
2023-04-23T11:25:16.321Z,14.30
2023-04-23T11:27:44.643Z,16.80
2023-04-23T11:30:13.351Z,18.25
2023-04-23T11:32:43.826Z,13.68
2023-04-23T11:35:13.615Z,13.38
2023-04-23T11:37:41.892Z,14.60
2023-04-23T11:40:11.007Z,15.73
2023-04-23T11:42:49.360Z,14.93
2023-04-23T11:45:20.497Z,16.77
2023-04-23T11:47:48.606Z,15.93
2023-04-23T11:50:22.818Z,17.70
2023-04-23T11:52:49.409Z,12.80
2023-04-23T11:55:16.997Z,9.63
2023-04-23T11:57:49.117Z,8.77
2023-04-23T12:00:21.412Z,6.97
2023-04-23T12:02:51.127Z,7.72
2023-04-23T12:05:38.043Z,5.50
2023-04-23T12:08:13.102Z,4.68
2023-04-23T12:10:45.462Z,4.28
2023-04-23T12:13:16.741Z,5.68
2023-04-23T12:15:51.552Z,7.03
2023-04-23T12:18:18.930Z,8.23
2023-04-23T12:20:46.258Z,4.45
2023-04-23T12:23:12.877Z,6.07
2023-04-23T12:25:40.872Z,7.32
2023-04-23T12:28:07.408Z,4.15
2023-04-23T12:30:42.224Z,4.30
2023-04-23T12:33:11.632Z,7.30
2023-04-23T12:35:49.358Z,5.88
2023-04-23T12:38:29.654Z,2.85
2023-04-23T12:40:58.668Z,5.47
2023-04-23T12:43:26.953Z,3.58
2023-04-23T12:45:54.925Z,2.78
2023-04-23T12:48:21.683Z,3.75
2023-04-23T12:50:48.915Z,2.88
2023-04-23T12:53:15.875Z,2.97
2023-04-23T12:55:45.743Z,4.40
2023-04-23T12:58:12.439Z,3.13
2023-04-23T13:00:38.917Z,3.58
2023-04-23T13:03:05.525Z,3.80
2023-04-23T13:05:32.041Z,5.47
2023-04-23T13:07:58.566Z,5.20
2023-04-23T13:10:25.919Z,3.88
2023-04-23T13:12:52.488Z,2.97
2023-04-23T13:15:20.183Z,4.43
2023-04-23T13:17:46.973Z,4.10
2023-04-23T13:20:13.448Z,3.30
2023-04-23T13:22:39.869Z,3.47
2023-04-23T13:25:06.861Z,8.48
2023-04-23T13:27:33.286Z,5.07
2023-04-23T13:30:00.048Z,3.53
2023-04-23T13:32:31.824Z,6.95
2023-04-23T13:35:01.774Z,4.70
2023-04-23T13:37:30.127Z,3.42
2023-04-23T13:39:56.619Z,4.43
2023-04-23T13:42:23.164Z,5.28
2023-04-23T13:44:49.615Z,6.07
2023-04-23T13:47:16.203Z,5.65
2023-04-23T13:49:43.237Z,5.10
2023-04-23T13:52:09.946Z,6.03
2023-04-23T13:54:36.442Z,5.20
2023-04-23T13:57:03.177Z,4.13
2023-04-23T13:59:29.707Z,4.45
2023-04-23T14:01:56.176Z,6.55
2023-04-23T14:04:24.188Z,5.40
2023-04-23T14:06:50.914Z,6.03
2023-04-23T14:09:18.993Z,5.13
2023-04-23T14:11:45.581Z,8.13
2023-04-23T14:14:12.212Z,6.78
2023-04-23T14:16:38.865Z,4.70
2023-04-23T14:19:05.497Z,5.38
2023-04-23T14:21:31.967Z,3.97
2023-04-23T14:24:07.885Z,4.40
2023-04-23T14:26:47.903Z,4.32
2023-04-23T14:29:18.573Z,3.83
2023-04-23T14:31:45.555Z,3.97
2023-04-23T14:34:12.331Z,5.80
2023-04-23T14:36:38.856Z,2.55
2023-04-23T14:39:05.601Z,2.97
2023-04-23T14:41:32.993Z,3.28
2023-04-23T14:44:02.794Z,4.35
2023-04-23T14:46:29.533Z,6.05
2023-04-23T14:48:56.032Z,3.83
2023-04-23T14:51:22.926Z,2.40
2023-04-23T14:53:49.861Z,4.05
2023-04-23T14:56:16.352Z,3.75
2023-04-23T14:58:43.099Z,6.45
2023-04-23T15:01:09.788Z,3.65
2023-04-23T15:03:36.648Z,6.40
2023-04-23T15:06:07.218Z,3.03
2023-04-23T15:08:33.964Z,4.82
2023-04-23T15:11:00.543Z,3.35
2023-04-23T15:13:31.412Z,6.35
2023-04-23T15:16:02.977Z,3.33
2023-04-23T15:20:55.935Z,1.98
2023-04-23T15:23:24.084Z,1.60
2023-04-23T15:25:51.315Z,1.88
2023-04-23T15:28:18.182Z,1.73
2023-04-23T15:30:47.817Z,2.05
2023-04-23T15:33:14.334Z,1.85
2023-04-23T15:35:40.811Z,2.80
2023-04-23T15:38:07.983Z,3.72
2023-04-23T15:40:42.201Z,3.63
2023-04-23T15:43:15.260Z,2.08
2023-04-23T15:45:42.864Z,4.55
2023-04-23T15:48:10.092Z,3.35
2023-04-23T15:50:36.566Z,2.50
2023-04-23T15:53:03.093Z,3.80
2023-04-23T15:55:29.581Z,5.15
2023-04-23T15:57:56.180Z,4.70
2023-04-23T16:00:22.801Z,3.83
2023-04-23T16:02:49.426Z,2.63
2023-04-23T16:05:16.338Z,3.80
2023-04-23T16:07:44.338Z,2.50
2023-04-23T16:10:11.014Z,2.28
2023-04-23T16:12:37.626Z,6.25
2023-04-23T16:15:05.145Z,3.60
2023-04-23T16:17:31.671Z,2.90
2023-04-23T16:19:58.170Z,1.88
2023-04-23T16:22:25.493Z,3.50
2023-04-23T16:24:51.999Z,2.47
2023-04-23T16:27:18.503Z,2.38
2023-04-23T16:29:44.963Z,2.25
2023-04-23T16:32:11.416Z,2.15
2023-04-23T16:34:38.109Z,3.38
2023-04-23T16:37:05.230Z,2.05
2023-04-23T16:39:31.682Z,1.60
2023-04-23T16:41:58.418Z,4.70
2023-04-23T16:44:24.929Z,7.25
2023-04-23T16:46:52.443Z,3.53
2023-04-23T16:49:19.493Z,3.55
2023-04-23T16:51:46.025Z,2.13
2023-04-23T16:54:12.469Z,3.38
2023-04-23T16:56:39.345Z,5.07
2023-04-23T16:59:06.605Z,4.38
2023-04-23T17:01:33.145Z,6.25
2023-04-23T17:03:59.808Z,4.25
2023-04-23T17:06:29.479Z,3.05
2023-04-23T17:09:00.240Z,2.83
2023-04-23T17:11:29.400Z,2.80
2023-04-23T17:13:56.572Z,5.18
2023-04-23T17:16:26.705Z,2.78
2023-04-23T17:18:54.214Z,4.15
2023-04-23T17:21:20.939Z,5.70
2023-04-23T17:23:47.774Z,4.15
2023-04-23T17:26:14.433Z,2.92
2023-04-23T17:28:41.139Z,2.55
2023-04-23T17:31:08.557Z,3.08
2023-04-23T17:33:35.504Z,4.10
2023-04-23T17:36:02.048Z,2.97
2023-04-23T17:38:29.018Z,3.47
2023-04-23T17:40:55.924Z,2.50
2023-04-23T17:43:22.490Z,4.72
2023-04-23T17:45:49.158Z,3.35
2023-04-23T17:48:16.183Z,3.35
2023-04-23T17:50:43.679Z,2.38
2023-04-23T17:53:10.521Z,2.50
2023-04-23T17:55:36.981Z,2.03
2023-04-23T17:58:05.868Z,6.65
2023-04-23T18:00:37.003Z,5.28
2023-04-23T18:03:04.237Z,3.78
2023-04-23T18:05:31.290Z,3.60
2023-04-23T18:07:58.287Z,5.28
2023-04-23T18:10:25.008Z,5.75
2023-04-23T18:12:51.814Z,5.78
2023-04-23T18:15:18.420Z,4.70
2023-04-23T18:17:45.449Z,5.22
2023-04-23T18:20:12.578Z,6.90
2023-04-23T18:22:41.155Z,8.77
2023-04-23T18:25:10.312Z,6.05
2023-04-23T18:27:36.895Z,7.03
2023-04-23T18:30:05.546Z,6.53
2023-04-23T18:32:41.534Z,4.60
2023-04-23T18:35:09.019Z,6.95
2023-04-23T18:37:49.303Z,6.65
2023-04-23T18:40:15.897Z,6.72
2023-04-23T18:42:42.456Z,5.45
2023-04-23T18:45:10.657Z,10.32
2023-04-23T18:47:44.249Z,8.18
2023-04-23T18:50:36.996Z,6.82
2023-04-23T18:53:04.153Z,6.97
2023-04-23T18:55:31.048Z,5.97
2023-04-23T18:57:57.757Z,7.05
2023-04-23T19:00:24.443Z,7.97
2023-04-23T19:02:51.099Z,6.20
2023-04-23T19:05:17.916Z,7.95
2023-04-23T19:07:44.630Z,5.78
2023-04-23T19:10:11.649Z,6.97
2023-04-23T19:12:38.290Z,9.20
2023-04-23T19:15:05.897Z,5.97
2023-04-23T19:17:32.829Z,7.28
2023-04-23T19:19:59.399Z,6.07
2023-04-23T19:22:26.267Z,6.80
2023-04-23T19:24:52.702Z,7.18
2023-04-23T19:27:19.972Z,7.90
2023-04-23T19:29:48.310Z,6.18
2023-04-23T19:32:14.819Z,8.13
2023-04-23T19:34:41.359Z,10.68
2023-04-23T19:37:07.799Z,8.63
2023-04-23T19:39:34.193Z,10.25
2023-04-23T19:42:02.572Z,13.75
2023-04-23T19:44:29.138Z,7.30
2023-04-23T19:46:56.424Z,8.68
2023-04-23T19:49:23.088Z,12.95
2023-04-23T19:51:52.910Z,8.93
2023-04-23T19:54:19.400Z,12.73
2023-04-23T19:56:45.844Z,7.80
2023-04-23T19:59:15.383Z,8.32
2023-04-23T20:01:41.857Z,11.98
2023-04-23T20:04:09.450Z,10.13
2023-04-23T20:06:36.489Z,11.95
2023-04-23T20:09:17.944Z,10.57
2023-04-23T20:11:46.025Z,8.95
2023-04-23T20:14:15.587Z,11.52
2023-04-23T20:16:42.171Z,9.77
2023-04-23T20:19:12.225Z,11.35
2023-04-23T20:21:39.604Z,10.55
2023-04-23T20:24:10.533Z,9.68
2023-04-23T20:26:39.098Z,11.65
2023-04-23T20:29:05.903Z,11.90
2023-04-23T20:31:33.295Z,9.90
2023-04-23T20:34:00.552Z,8.27
2023-04-23T20:36:31.629Z,8.73
2023-04-23T20:38:59.351Z,8.20
2023-04-23T20:41:30.516Z,10.77
2023-04-23T20:43:58.676Z,8.70
2023-04-23T20:46:26.084Z,8.75
2023-04-23T20:48:55.593Z,9.77
2023-04-23T20:51:23.349Z,8.25
2023-04-23T20:53:51.388Z,7.38
2023-04-23T20:56:18.699Z,10.77
2023-04-23T20:58:45.149Z,9.10
2023-04-23T21:01:11.681Z,7.75
2023-04-23T21:03:39.416Z,9.68
2023-04-23T21:06:10.141Z,13.70
2023-04-23T21:08:38.929Z,11.18
2023-04-23T21:11:05.569Z,7.82
2023-04-23T21:13:31.995Z,11.35
2023-04-23T21:15:58.452Z,9.85
2023-04-23T21:18:24.981Z,8.25
2023-04-23T21:20:51.450Z,8.10
2023-04-23T21:23:17.921Z,10.68
2023-04-23T21:25:44.443Z,11.63
2023-04-23T21:28:10.961Z,11.15
2023-04-23T21:30:53.123Z,13.05
2023-04-23T21:33:21.684Z,9.30
2023-04-23T21:35:50.630Z,7.50
2023-04-23T21:38:18.523Z,8.93
2023-04-23T21:40:46.075Z,7.82
2023-04-23T21:43:12.638Z,8.93
2023-04-23T21:45:39.297Z,10.27
2023-04-23T21:48:06.382Z,8.57
2023-04-23T21:50:33.489Z,9.35
2023-04-23T21:53:00.723Z,7.78
2023-04-23T21:55:28.309Z,8.63
2023-04-23T21:58:03.221Z,11.52
2023-04-23T22:00:40.467Z,9.30
2023-04-23T22:03:07.077Z,7.78
2023-04-23T22:05:34.131Z,9.60
2023-04-23T22:08:00.609Z,9.60
2023-04-23T22:10:27.155Z,11.07
2023-04-23T22:12:53.688Z,7.78
2023-04-23T22:15:20.607Z,7.63
2023-04-23T22:17:50.347Z,7.00
2023-04-23T22:20:19.092Z,6.50
2023-04-23T22:22:46.154Z,7.32
2023-04-23T22:25:13.154Z,7.00
2023-04-23T22:27:41.266Z,8.38
2023-04-23T22:30:09.656Z,7.45
2023-04-23T22:32:37.362Z,8.80
2023-04-23T22:35:04.954Z,7.63
2023-04-23T22:37:31.818Z,10.18
2023-04-23T22:39:58.575Z,7.18
2023-04-23T22:42:25.107Z,5.57
2023-04-23T22:44:51.722Z,8.32
2023-04-23T22:47:18.192Z,6.50
2023-04-23T22:49:44.887Z,7.60
2023-04-23T22:52:14.150Z,7.32
2023-04-23T22:54:41.335Z,7.28
2023-04-23T22:57:08.146Z,8.48
2023-04-23T22:59:34.635Z,8.90
2023-04-23T23:02:01.090Z,6.43
2023-04-23T23:04:27.606Z,7.63
2023-04-23T23:06:54.074Z,8.90
2023-04-23T23:09:20.482Z,5.63
2023-04-23T23:11:47.097Z,7.45
2023-04-23T23:14:14.253Z,5.63
2023-04-23T23:16:40.817Z,8.95
2023-04-23T23:19:08.145Z,7.70
2023-04-23T23:21:34.793Z,7.90
2023-04-23T23:24:01.273Z,6.63
2023-04-23T23:26:28.735Z,7.35
2023-04-23T23:28:55.691Z,10.13
2023-04-23T23:31:25.830Z,12.57
2023-04-23T23:33:53.126Z,8.02
2023-04-23T23:36:19.763Z,6.20
2023-04-23T23:38:46.268Z,14.82
2023-04-23T23:41:12.820Z,7.93
2023-04-23T23:43:39.562Z,7.95
2023-04-23T23:46:06.129Z,10.00
2023-04-23T23:48:32.678Z,7.22
2023-04-23T23:50:59.175Z,6.38
2023-04-23T23:53:25.825Z,8.55
2023-04-23T23:55:52.240Z,11.02
2023-04-23T23:58:18.672Z,6.63
